sensor_id;sensor_type;location;lat;lon;timestamp;pressure;altitude;pressure_sealevel;temperature;humidity
50484;BME280;36409;52.168;20.878;2022-10-16T00:00:20;100567.20;;;13.63;69.92
50484;BME280;36409;52.168;20.878;2022-10-16T00:03:09;100574.95;;;13.67;70.70
50484;BME280;36409;52.168;20.878;2022-10-16T00:05:42;100572.27;;;13.70;70.54
50484;BME280;36409;52.168;20.878;2022-10-16T00:08:12;100567.86;;;13.72;70.16
50484;BME280;36409;52.168;20.878;2022-10-16T00:10:41;100559.89;;;13.75;70.42
50484;BME280;36409;52.168;20.878;2022-10-16T00:13:10;100565.13;;;13.77;69.95
50484;BME280;36409;52.168;20.878;2022-10-16T00:15:38;100565.02;;;13.80;70.65
50484;BME280;36409;52.168;20.878;2022-10-16T00:18:07;100569.36;;;13.83;69.79
50484;BME280;36409;52.168;20.878;2022-10-16T00:20:36;100560.59;;;13.84;70.29
50484;BME280;36409;52.168;20.878;2022-10-16T00:23:05;100568.41;;;13.85;70.28
50484;BME280;36409;52.168;20.878;2022-10-16T00:25:33;100566.62;;;13.87;69.66
50484;BME280;36409;52.168;20.878;2022-10-16T00:28:02;100571.86;;;13.87;69.82
50484;BME280;36409;52.168;20.878;2022-10-16T00:30:32;100574.44;;;13.89;70.43
50484;BME280;36409;52.168;20.878;2022-10-16T00:33:01;100568.30;;;13.90;69.72
50484;BME280;36409;52.168;20.878;2022-10-16T00:35:30;100573.54;;;13.90;70.12
50484;BME280;36409;52.168;20.878;2022-10-16T00:37:59;100578.79;;;13.90;69.83
50484;BME280;36409;52.168;20.878;2022-10-16T00:40:27;100582.31;;;13.89;69.86
50484;BME280;36409;52.168;20.878;2022-10-16T00:42:56;100580.56;;;13.89;69.91
50484;BME280;36409;52.168;20.878;2022-10-16T00:45:24;100580.58;;;13.88;70.04
50484;BME280;36409;52.168;20.878;2022-10-16T00:47:55;100588.45;;;13.88;70.14
50484;BME280;36409;52.168;20.878;2022-10-16T00:50:27;100586.70;;;13.88;69.53
50484;BME280;36409;52.168;20.878;2022-10-16T00:52:57;100585.83;;;13.88;70.31
50484;BME280;36409;52.168;20.878;2022-10-16T00:55:27;100588.45;;;13.88;69.96
50484;BME280;36409;52.168;20.878;2022-10-16T00:57:58;100585.83;;;13.88;69.72
50484;BME280;36409;52.168;20.878;2022-10-16T01:00:27;100583.20;;;13.88;69.43
50484;BME280;36409;52.168;20.878;2022-10-16T01:02:58;100587.50;;;13.90;70.06
50484;BME280;36409;52.168;20.878;2022-10-16T01:05:32;100587.50;;;13.90;70.25
50484;BME280;36409;52.168;20.878;2022-10-16T01:08:08;100583.98;;;13.92;69.70
50484;BME280;36409;52.168;20.878;2022-10-16T01:10:45;100589.23;;;13.92;70.54
50484;BME280;36409;52.168;20.878;2022-10-16T01:13:23;100587.48;;;13.92;69.67
50484;BME280;36409;52.168;20.878;2022-10-16T01:15:57;100590.95;;;13.93;69.35
50484;BME280;36409;52.168;20.878;2022-10-16T01:18:34;100585.77;;;13.91;69.75
50484;BME280;36409;52.168;20.878;2022-10-16T01:21:10;100587.50;;;13.90;69.67
50484;BME280;36409;52.168;20.878;2022-10-16T01:23:52;100592.75;;;13.90;69.25
50484;BME280;36409;52.168;20.878;2022-10-16T01:26:35;100602.41;;;13.90;69.67
50484;BME280;36409;52.168;20.878;2022-10-16T01:29:08;100603.30;;;13.89;69.75
50484;BME280;36409;52.168;20.878;2022-10-16T01:31:40;100611.17;;;13.89;70.07
50484;BME280;36409;52.168;20.878;2022-10-16T01:34:15;100613.80;;;13.89;69.88
50484;BME280;36409;52.168;20.878;2022-10-16T01:36:49;100615.56;;;13.88;69.46
50484;BME280;36409;52.168;20.878;2022-10-16T01:39:23;100619.09;;;13.87;69.62
50484;BME280;36409;52.168;20.878;2022-10-16T01:41:57;100623.45;;;13.87;69.87
50484;BME280;36409;52.168;20.878;2022-10-16T01:44:30;100619.10;;;13.86;69.31
50484;BME280;36409;52.168;20.878;2022-10-16T01:47:00;100613.06;;;13.84;69.14
50484;BME280;36409;52.168;20.878;2022-10-16T01:49:32;100612.17;;;13.83;69.14
50484;BME280;36409;52.168;20.878;2022-10-16T01:52:06;100606.09;;;13.81;69.05
50484;BME280;36409;52.168;20.878;2022-10-16T01:54:37;100602.64;;;13.79;69.34
50484;BME280;36409;52.168;20.878;2022-10-16T01:57:07;100610.56;;;13.78;69.42
50484;BME280;36409;52.168;20.878;2022-10-16T01:59:40;100600.97;;;13.77;69.87
50484;BME280;36409;52.168;20.878;2022-10-16T02:02:13;100608.00;;;13.74;69.25
50484;BME280;36409;52.168;20.878;2022-10-16T02:04:45;100603.70;;;13.72;69.24
50484;BME280;36409;52.168;20.878;2022-10-16T02:07:14;100609.84;;;13.71;69.59
50484;BME280;36409;52.168;20.878;2022-10-16T02:09:44;100607.27;;;13.69;69.17
50484;BME280;36409;52.168;20.878;2022-10-16T02:12:18;100601.19;;;13.67;69.58
50484;BME280;36409;52.168;20.878;2022-10-16T02:14:47;100607.33;;;13.66;68.88
50484;BME280;36409;52.168;20.878;2022-10-16T02:17:18;100606.50;;;13.64;69.20
50484;BME280;36409;52.168;20.878;2022-10-16T02:19:49;100609.16;;;13.63;69.14
50484;BME280;36409;52.168;20.878;2022-10-16T02:22:24;100601.34;;;13.61;69.08
50484;BME280;36409;52.168;20.878;2022-10-16T02:24:58;100601.36;;;13.59;69.19
50484;BME280;36409;52.168;20.878;2022-10-16T02:27:33;100597.10;;;13.55;69.37
50484;BME280;36409;52.168;20.878;2022-10-16T02:30:07;100596.28;;;13.52;69.32
50484;BME280;36409;52.168;20.878;2022-10-16T02:32:40;100601.62;;;13.49;69.41
50484;BME280;36409;52.168;20.878;2022-10-16T02:35:10;100600.84;;;13.45;69.87
50484;BME280;36409;52.168;20.878;2022-10-16T02:37:41;100603.47;;;13.43;69.40
50484;BME280;36409;52.168;20.878;2022-10-16T02:40:11;100608.76;;;13.42;69.10
50484;BME280;36409;52.168;20.878;2022-10-16T02:42:40;100607.06;;;13.38;69.26
50484;BME280;36409;52.168;20.878;2022-10-16T02:45:11;100611.45;;;13.37;69.36
50484;BME280;36409;52.168;20.878;2022-10-16T02:47:39;100617.60;;;13.35;69.22
50484;BME280;36409;52.168;20.878;2022-10-16T02:50:09;100610.67;;;13.32;69.47
50484;BME280;36409;52.168;20.878;2022-10-16T02:52:37;100614.19;;;13.31;69.56
50484;BME280;36409;52.168;20.878;2022-10-16T02:55:07;100627.39;;;13.28;69.50
50484;BME280;36409;52.168;20.878;2022-10-16T02:57:36;100620.41;;;13.27;69.39
50484;BME280;36409;52.168;20.878;2022-10-16T03:00:07;100628.29;;;13.25;69.71
50484;BME280;36409;52.168;20.878;2022-10-16T03:02:36;100628.34;;;13.24;70.13
50484;BME280;36409;52.168;20.878;2022-10-16T03:05:06;100631.84;;;13.23;70.02
50484;BME280;36409;52.168;20.878;2022-10-16T03:07:36;100633.63;;;13.21;69.78
50484;BME280;36409;52.168;20.878;2022-10-16T03:10:06;100633.63;;;13.21;70.08
50484;BME280;36409;52.168;20.878;2022-10-16T03:12:35;100633.69;;;13.18;70.22
50484;BME280;36409;52.168;20.878;2022-10-16T03:15:04;100631.99;;;13.17;70.39
50484;BME280;36409;52.168;20.878;2022-10-16T03:17:34;100633.77;;;13.15;69.43
50484;BME280;36409;52.168;20.878;2022-10-16T03:20:06;100632.89;;;13.14;70.23
50484;BME280;36409;52.168;20.878;2022-10-16T03:22:34;100637.28;;;13.13;69.88
50484;BME280;36409;52.168;20.878;2022-10-16T03:25:04;100632.94;;;13.12;70.08
50484;BME280;36409;52.168;20.878;2022-10-16T03:27:33;100640.80;;;13.12;70.20
50484;BME280;36409;52.168;20.878;2022-10-16T03:30:02;100649.55;;;13.11;70.77
50484;BME280;36409;52.168;20.878;2022-10-16T03:32:31;100648.70;;;13.11;70.23
50484;BME280;36409;52.168;20.878;2022-10-16T03:34:59;100650.45;;;13.10;69.77
50484;BME280;36409;52.168;20.878;2022-10-16T03:37:30;100643.47;;;13.09;70.40
50484;BME280;36409;52.168;20.878;2022-10-16T03:40:01;100646.97;;;13.10;70.11
50484;BME280;36409;52.168;20.878;2022-10-16T03:42:30;100658.30;;;13.10;70.07
50484;BME280;36409;52.168;20.878;2022-10-16T03:44:59;100656.58;;;13.09;70.39
50484;BME280;36409;52.168;20.878;2022-10-16T03:47:28;100656.63;;;13.06;69.82
50484;BME280;36409;52.168;20.878;2022-10-16T03:50:03;100658.44;;;13.04;70.73
50484;BME280;36409;52.168;20.878;2022-10-16T03:52:32;100653.30;;;13.00;70.57
50484;BME280;36409;52.168;20.878;2022-10-16T03:55:03;100651.58;;;12.97;69.79
50484;BME280;36409;52.168;20.878;2022-10-16T03:57:32;100649.94;;;12.91;70.56
50484;BME280;36409;52.168;20.878;2022-10-16T04:00:00;100655.27;;;12.87;70.93
50484;BME280;36409;52.168;20.878;2022-10-16T04:02:42;100661.44;;;12.84;70.14
50484;BME280;36409;52.168;20.878;2022-10-16T04:05:11;100661.48;;;12.81;70.71
50484;BME280;36409;52.168;20.878;2022-10-16T04:07:40;100658.91;;;12.79;70.64
50484;BME280;36409;52.168;20.878;2022-10-16T04:10:09;100659.80;;;12.78;70.38
50484;BME280;36409;52.168;20.878;2022-10-16T04:12:39;100655.45;;;12.77;69.74
50484;BME280;36409;52.168;20.878;2022-10-16T04:15:09;100658.95;;;12.76;70.66
50484;BME280;36409;52.168;20.878;2022-10-16T04:17:38;100665.97;;;12.76;70.42
50484;BME280;36409;52.168;20.878;2022-10-16T04:20:09;100669.47;;;12.75;70.15
50484;BME280;36409;52.168;20.878;2022-10-16T04:22:37;100672.09;;;12.75;70.56
50484;BME280;36409;52.168;20.878;2022-10-16T04:25:08;100680.84;;;12.74;69.89
50484;BME280;36409;52.168;20.878;2022-10-16T04:27:37;100683.45;;;12.74;70.69
50484;BME280;36409;52.168;20.878;2022-10-16T04:30:13;100682.62;;;12.72;71.06
50484;BME280;36409;52.168;20.878;2022-10-16T04:32:48;100686.12;;;12.71;70.40
50484;BME280;36409;52.168;20.878;2022-10-16T04:35:18;100673.92;;;12.70;70.96
50484;BME280;36409;52.168;20.878;2022-10-16T04:37:47;100677.50;;;12.65;71.43
50484;BME280;36409;52.168;20.878;2022-10-16T04:40:19;100674.97;;;12.61;70.37
50484;BME280;36409;52.168;20.878;2022-10-16T04:42:49;100677.63;;;12.58;70.39
50484;BME280;36409;52.168;20.878;2022-10-16T04:45:20;100687.31;;;12.53;71.11
50484;BME280;36409;52.168;20.878;2022-10-16T04:47:48;100680.42;;;12.48;71.14
50484;BME280;36409;52.168;20.878;2022-10-16T04:50:19;100684.85;;;12.43;70.48
50484;BME280;36409;52.168;20.878;2022-10-16T04:53:02;100689.32;;;12.38;70.45
50484;BME280;36409;52.168;20.878;2022-10-16T04:55:31;100690.25;;;12.34;70.96
50484;BME280;36409;52.168;20.878;2022-10-16T04:58:00;100685.09;;;12.29;71.28
50484;BME280;36409;52.168;20.878;2022-10-16T05:00:31;100686.91;;;12.24;71.18
50484;BME280;36409;52.168;20.878;2022-10-16T05:02:59;100693.06;;;12.22;71.28
50484;BME280;36409;52.168;20.878;2022-10-16T05:05:28;100700.98;;;12.17;71.16
50484;BME280;36409;52.168;20.878;2022-10-16T05:07:57;100702.79;;;12.13;70.80
50484;BME280;36409;52.168;20.878;2022-10-16T05:10:26;100705.44;;;12.10;70.65
50484;BME280;36409;52.168;20.878;2022-10-16T05:12:55;100707.21;;;12.08;70.49
50484;BME280;36409;52.168;20.878;2022-10-16T05:15:23;100713.41;;;12.02;70.81
50484;BME280;36409;52.168;20.878;2022-10-16T05:17:55;100709.94;;;12.00;70.98
50484;BME280;36409;52.168;20.878;2022-10-16T05:20:23;100715.20;;;11.97;71.25
50484;BME280;36409;52.168;20.878;2022-10-16T05:22:54;100712.63;;;11.94;70.40
50484;BME280;36409;52.168;20.878;2022-10-16T05:25:23;100709.16;;;11.92;71.38
50484;BME280;36409;52.168;20.878;2022-10-16T05:27:54;100699.58;;;11.91;71.37
50484;BME280;36409;52.168;20.878;2022-10-16T05:30:23;100702.23;;;11.89;71.03
50484;BME280;36409;52.168;20.878;2022-10-16T05:32:54;100702.27;;;11.86;71.40
50484;BME280;36409;52.168;20.878;2022-10-16T05:35:23;100705.77;;;11.85;70.96
50484;BME280;36409;52.168;20.878;2022-10-16T05:37:56;100704.03;;;11.84;71.65
50484;BME280;36409;52.168;20.878;2022-10-16T05:40:25;100705.80;;;11.84;71.25
50484;BME280;36409;52.168;20.878;2022-10-16T05:42:56;100714.49;;;11.84;70.63
50484;BME280;36409;52.168;20.878;2022-10-16T05:45:29;100713.64;;;11.84;71.31
50484;BME280;36409;52.168;20.878;2022-10-16T05:47:59;100727.61;;;11.83;70.99
50484;BME280;36409;52.168;20.878;2022-10-16T05:50:28;100726.72;;;11.84;72.07
50484;BME280;36409;52.168;20.878;2022-10-16T05:52:57;100725.84;;;11.83;70.99
50484;BME280;36409;52.168;20.878;2022-10-16T05:55:31;100733.69;;;11.83;72.31
50484;BME280;36409;52.168;20.878;2022-10-16T05:58:00;100726.72;;;11.84;71.34
50484;BME280;36409;52.168;20.878;2022-10-16T06:00:31;100739.77;;;11.87;71.46
50484;BME280;36409;52.168;20.878;2022-10-16T06:03:00;100737.15;;;11.87;71.50
50484;BME280;36409;52.168;20.878;2022-10-16T06:05:31;100738.84;;;11.89;71.58
50484;BME280;36409;52.168;20.878;2022-10-16T06:08:00;100744.05;;;11.93;72.00
50484;BME280;36409;52.168;20.878;2022-10-16T06:10:29;100737.02;;;11.96;71.32
50484;BME280;36409;52.168;20.878;2022-10-16T06:13:00;100739.59;;;12.01;71.82
50484;BME280;36409;52.168;20.878;2022-10-16T06:15:32;100742.99;;;12.06;71.57
50484;BME280;36409;52.168;20.878;2022-10-16T06:18:01;100749.04;;;12.11;72.10
50484;BME280;36409;52.168;20.878;2022-10-16T06:20:29;100744.59;;;12.18;72.53
50484;BME280;36409;52.168;20.878;2022-10-16T06:22:57;100747.98;;;12.25;72.39
50484;BME280;36409;52.168;20.878;2022-10-16T06:25:28;100743.48;;;12.33;72.17
50484;BME280;36409;52.168;20.878;2022-10-16T06:27:56;100750.33;;;12.42;71.73
50484;BME280;36409;52.168;20.878;2022-10-16T06:30:25;100745.83;;;12.50;72.06
50484;BME280;36409;52.168;20.878;2022-10-16T06:32:54;100754.42;;;12.58;72.27
50484;BME280;36409;52.168;20.878;2022-10-16T06:35:28;100754.27;;;12.67;71.76
50484;BME280;36409;52.168;20.878;2022-10-16T06:37:57;100748.05;;;12.75;72.46
50484;BME280;36409;52.168;20.878;2022-10-16T06:40:27;100761.91;;;12.81;71.87
50484;BME280;36409;52.168;20.878;2022-10-16T06:43:01;100760.86;;;12.90;71.87
50484;BME280;36409;52.168;20.878;2022-10-16T06:45:29;100770.28;;;13.01;71.87
50484;BME280;36409;52.168;20.878;2022-10-16T06:47:58;100764.02;;;13.09;71.96
50484;BME280;36409;52.168;20.878;2022-10-16T06:50:26;100770.89;;;13.17;71.74
50484;BME280;36409;52.168;20.878;2022-10-16T06:52:55;100765.48;;;13.26;72.39
50484;BME280;36409;52.168;20.878;2022-10-16T06:55:28;100767.86;;;13.38;71.65
50484;BME280;36409;52.168;20.878;2022-10-16T06:57:59;100772.02;;;13.50;71.90
50484;BME280;36409;52.168;20.878;2022-10-16T07:00:28;100777.87;;;13.63;72.12
50484;BME280;36409;52.168;20.878;2022-10-16T07:02:57;100789.00;;;13.74;71.38
50484;BME280;36409;52.168;20.878;2022-10-16T07:05:27;100780.14;;;13.80;71.36
50484;BME280;36409;52.168;20.878;2022-10-16T07:07:58;100780.98;;;13.82;71.49
50484;BME280;36409;52.168;20.878;2022-10-16T07:10:26;100781.86;;;13.83;71.11
50484;BME280;36409;52.168;20.878;2022-10-16T07:12:55;100772.27;;;13.80;71.67
50484;BME280;36409;52.168;20.878;2022-10-16T07:15:27;100785.39;;;13.80;72.18
50484;BME280;36409;52.168;20.878;2022-10-16T07:17:56;100781.02;;;13.81;71.15
50484;BME280;36409;52.168;20.878;2022-10-16T07:20:24;100777.51;;;13.82;71.66
50484;BME280;36409;52.168;20.878;2022-10-16T07:22:56;100788.75;;;13.87;71.99
50484;BME280;36409;52.168;20.878;2022-10-16T07:25:24;100780.77;;;13.93;71.32
50484;BME280;36409;52.168;20.878;2022-10-16T07:27:53;100753.54;;;13.97;71.01
50484;BME280;36409;52.168;20.878;2022-10-16T07:30:24;100761.08;;;14.13;71.23
50484;BME280;36409;52.168;20.878;2022-10-16T07:32:52;100759.09;;;14.60;71.46
50484;BME280;36409;52.168;20.878;2022-10-16T07:35:22;100764.50;;;14.90;71.25
50484;BME280;36409;52.168;20.878;2022-10-16T07:37:51;100770.62;;;15.55;71.10
50484;BME280;36409;52.168;20.878;2022-10-16T07:40:20;100788.94;;;16.20;70.76
50484;BME280;36409;52.168;20.878;2022-10-16T07:42:51;100783.27;;;16.61;70.64
50484;BME280;36409;52.168;20.878;2022-10-16T07:45:20;100783.31;;;17.62;70.11
50484;BME280;36409;52.168;20.878;2022-10-16T07:47:48;100776.02;;;18.16;69.70
50484;BME280;36409;52.168;20.878;2022-10-16T07:50:17;100769.80;;;18.40;68.89
50484;BME280;36409;52.168;20.878;2022-10-16T07:52:45;100769.58;;;19.49;67.34
50484;BME280;36409;52.168;20.878;2022-10-16T07:55:14;100762.19;;;19.96;66.76
50484;BME280;36409;52.168;20.878;2022-10-16T07:57:43;100771.62;;;19.63;67.34
50484;BME280;36409;52.168;20.878;2022-10-16T08:00:13;100769.11;;;19.20;67.14
50484;BME280;36409;52.168;20.878;2022-10-16T08:02:42;100780.82;;;18.94;67.42
50484;BME280;36409;52.168;20.878;2022-10-16T08:05:10;100786.06;;;18.73;66.77
50484;BME280;36409;52.168;20.878;2022-10-16T08:07:39;100785.42;;;18.46;66.75
50484;BME280;36409;52.168;20.878;2022-10-16T08:10:13;100796.41;;;18.35;66.75
50484;BME280;36409;52.168;20.878;2022-10-16T08:12:44;100801.25;;;18.24;66.37
50484;BME280;36409;52.168;20.878;2022-10-16T08:15:13;100799.72;;;18.18;66.59
50484;BME280;36409;52.168;20.878;2022-10-16T08:17:42;100797.92;;;18.18;66.60
50484;BME280;36409;52.168;20.878;2022-10-16T08:20:11;100793.14;;;18.28;66.82
50484;BME280;36409;52.168;20.878;2022-10-16T08:22:40;100791.48;;;18.48;66.46
50484;BME280;36409;52.168;20.878;2022-10-16T08:25:09;100798.44;;;18.50;66.51
50484;BME280;36409;52.168;20.878;2022-10-16T08:27:38;100801.94;;;18.51;66.10
50484;BME280;36409;52.168;20.878;2022-10-16T08:30:09;100819.59;;;18.50;66.04
50484;BME280;36409;52.168;20.878;2022-10-16T08:32:40;100813.12;;;18.58;66.03
50484;BME280;36409;52.168;20.878;2022-10-16T08:35:10;100811.74;;;18.70;65.52
50484;BME280;36409;52.168;20.878;2022-10-16T08:37:39;100810.39;;;18.81;65.67
50484;BME280;36409;52.168;20.878;2022-10-16T08:40:17;100812.84;;;18.86;65.43
50484;BME280;36409;52.168;20.878;2022-10-16T08:43:05;100821.22;;;18.97;65.78
50484;BME280;36409;52.168;20.878;2022-10-16T08:45:44;100815.41;;;19.10;65.11
50484;BME280;36409;52.168;20.878;2022-10-16T08:48:21;100818.50;;;19.20;65.42
50484;BME280;36409;52.168;20.878;2022-10-16T08:50:55;100815.52;;;19.27;64.92
50484;BME280;36409;52.168;20.878;2022-10-16T08:53:27;100821.61;;;19.29;64.69
50484;BME280;36409;52.168;20.878;2022-10-16T08:55:57;100819.64;;;19.35;64.73
50484;BME280;36409;52.168;20.878;2022-10-16T08:58:29;100826.38;;;19.42;64.63
50484;BME280;36409;52.168;20.878;2022-10-16T09:01:00;100824.70;;;19.60;64.34
50484;BME280;36409;52.168;20.878;2022-10-16T09:03:39;100819.97;;;20.06;63.10
50484;BME280;36409;52.168;20.878;2022-10-16T09:06:21;100827.67;;;20.86;62.77
50484;BME280;36409;52.168;20.878;2022-10-16T09:09:11;100842.10;;;20.98;63.17
50484;BME280;36409;52.168;20.878;2022-10-16T09:11:51;100833.22;;;20.81;62.92
50484;BME280;36409;52.168;20.878;2022-10-16T09:14:41;100830.48;;;21.18;62.44
50484;BME280;36409;52.168;20.878;2022-10-16T09:17:24;100822.16;;;22.09;60.40
50484;BME280;36409;52.168;20.878;2022-10-16T09:20:16;100805.92;;;22.62;60.45
50484;BME280;36409;52.168;20.878;2022-10-16T09:22:46;100808.06;;;24.32;58.03
50484;BME280;36409;52.168;20.878;2022-10-16T09:25:16;100803.36;;;24.08;58.67
50484;BME280;36409;52.168;20.878;2022-10-16T09:27:49;100804.98;;;24.38;57.85
50484;BME280;36409;52.168;20.878;2022-10-16T09:30:21;100808.39;;;24.13;58.14
50484;BME280;36409;52.168;20.878;2022-10-16T09:32:52;100815.44;;;23.85;58.51
50484;BME280;36409;52.168;20.878;2022-10-16T09:35:32;100813.06;;;23.66;58.20
50484;BME280;36409;52.168;20.878;2022-10-16T09:38:06;100815.81;;;23.21;58.83
50484;BME280;36409;52.168;20.878;2022-10-16T09:40:38;100816.19;;;22.84;58.51
50484;BME280;36409;52.168;20.878;2022-10-16T09:43:20;100811.44;;;22.43;59.07
50484;BME280;36409;52.168;20.878;2022-10-16T09:46:00;100818.10;;;22.02;58.97
50484;BME280;36409;52.168;20.878;2022-10-16T09:48:36;100822.88;;;21.79;59.22
50484;BME280;36409;52.168;20.878;2022-10-16T09:51:16;100814.04;;;21.63;58.92
50484;BME280;36409;52.168;20.878;2022-10-16T09:53:53;100813.79;;;21.67;58.87
50484;BME280;36409;52.168;20.878;2022-10-16T09:56:28;100810.23;;;22.00;59.09
50484;BME280;36409;52.168;20.878;2022-10-16T09:58:59;100809.79;;;22.40;59.50
50484;BME280;36409;52.168;20.878;2022-10-16T10:01:38;100809.80;;;22.56;58.71
50484;BME280;36409;52.168;20.878;2022-10-16T10:04:09;100817.44;;;22.46;58.62
50484;BME280;36409;52.168;20.878;2022-10-16T10:06:44;100816.05;;;22.39;59.16
50484;BME280;36409;52.168;20.878;2022-10-16T10:09:20;100823.63;;;22.47;58.69
50484;BME280;36409;52.168;20.878;2022-10-16T10:11:51;100822.85;;;22.45;58.30
50484;BME280;36409;52.168;20.878;2022-10-16T10:14:23;100820.53;;;22.39;58.46
50484;BME280;36409;52.168;20.878;2022-10-16T10:17:12;100821.63;;;22.34;58.18
50484;BME280;36409;52.168;20.878;2022-10-16T10:19:44;100818.03;;;22.35;58.71
50484;BME280;36409;52.168;20.878;2022-10-16T10:22:19;100811.44;;;22.43;58.53
50484;BME280;36409;52.168;20.878;2022-10-16T10:25:04;100812.83;;;22.50;58.22
50484;BME280;36409;52.168;20.878;2022-10-16T10:27:51;100812.45;;;22.40;58.07
50484;BME280;36409;52.168;20.878;2022-10-16T10:30:32;100815.20;;;22.39;58.01
50484;BME280;36409;52.168;20.878;2022-10-16T10:33:14;100807.73;;;22.13;57.42
50484;BME280;36409;52.168;20.878;2022-10-16T10:36:00;100810.74;;;21.91;57.85
50484;BME280;36409;52.168;20.878;2022-10-16T10:38:38;100808.91;;;21.75;58.20
50484;BME280;36409;52.168;20.878;2022-10-16T10:44:16;100810.13;;;21.52;57.68
50484;BME280;36409;52.168;20.878;2022-10-16T10:46:54;100815.16;;;21.41;58.12
50484;BME280;36409;52.168;20.878;2022-10-16T10:49:38;100813.67;;;21.35;57.94
50484;BME280;36409;52.168;20.878;2022-10-16T10:52:34;100811.56;;;21.24;58.11
50484;BME280;36409;52.168;20.878;2022-10-16T10:55:14;100805.50;;;21.05;57.44
50484;BME280;36409;52.168;20.878;2022-10-16T11:00:49;100802.87;;;20.87;58.38
50484;BME280;36409;52.168;20.878;2022-10-16T11:03:35;100807.30;;;20.87;58.18
50484;BME280;36409;52.168;20.878;2022-10-16T11:06:11;100798.95;;;20.94;58.51
50484;BME280;36409;52.168;20.878;2022-10-16T11:08:45;100804.90;;;21.00;58.27
50484;BME280;36409;52.168;20.878;2022-10-16T11:11:23;100802.40;;;20.96;58.16
50484;BME280;36409;52.168;20.878;2022-10-16T11:14:01;100797.56;;;20.87;58.29
50484;BME280;36409;52.168;20.878;2022-10-16T11:16:42;100795.30;;;20.79;58.35
50484;BME280;36409;52.168;20.878;2022-10-16T11:19:18;100799.95;;;20.74;58.41
50484;BME280;36409;52.168;20.878;2022-10-16T11:21:59;100793.42;;;20.81;58.44
50484;BME280;36409;52.168;20.878;2022-10-16T11:24:37;100792.08;;;20.90;58.51
50484;BME280;36409;52.168;20.878;2022-10-16T11:27:14;100803.71;;;20.88;58.49
50484;BME280;36409;52.168;20.878;2022-10-16T11:29:49;100806.75;;;20.80;58.33
50484;BME280;36409;52.168;20.878;2022-10-16T11:32:24;100802.31;;;20.80;58.69
50484;BME280;36409;52.168;20.878;2022-10-16T11:34:59;100808.55;;;20.79;58.51
50484;BME280;36409;52.168;20.878;2022-10-16T11:37:29;100809.02;;;20.88;58.82
50484;BME280;36409;52.168;20.878;2022-10-16T11:40:10;100808.72;;;20.94;58.70
50484;BME280;36409;52.168;20.878;2022-10-16T11:42:51;100814.86;;;21.12;58.42
50484;BME280;36409;52.168;20.878;2022-10-16T11:45:32;100809.25;;;21.18;58.53
50484;BME280;36409;52.168;20.878;2022-10-16T11:48:10;100799.72;;;21.14;58.71
50484;BME280;36409;52.168;20.878;2022-10-16T11:50:48;100797.30;;;21.09;58.28
50484;BME280;36409;52.168;20.878;2022-10-16T11:53:24;100794.35;;;21.16;58.20
50484;BME280;36409;52.168;20.878;2022-10-16T11:56:00;100784.25;;;21.22;58.01
50484;BME280;36409;52.168;20.878;2022-10-16T11:58:33;100778.72;;;21.27;58.59
50484;BME280;36409;52.168;20.878;2022-10-16T12:01:15;100790.28;;;21.26;58.58
50484;BME280;36409;52.168;20.878;2022-10-16T12:03:51;100796.97;;;21.33;58.51
50484;BME280;36409;52.168;20.878;2022-10-16T12:06:32;100806.95;;;21.28;58.54
50484;BME280;36409;52.168;20.878;2022-10-16T12:09:03;100800.95;;;21.24;57.84
50484;BME280;36409;52.168;20.878;2022-10-16T12:11:36;100803.55;;;21.26;57.83
50484;BME280;36409;52.168;20.878;2022-10-16T12:14:32;100800.80;;;21.27;58.02
50484;BME280;36409;52.168;20.878;2022-10-16T12:17:26;100813.92;;;21.31;58.26
50484;BME280;36409;52.168;20.878;2022-10-16T12:20:00;100811.09;;;21.34;58.31
50484;BME280;36409;52.168;20.878;2022-10-16T12:22:30;100809.39;;;21.33;58.19
50484;BME280;36409;52.168;20.878;2022-10-16T12:25:00;100809.21;;;21.36;58.55
50484;BME280;36409;52.168;20.878;2022-10-16T12:27:30;100813.83;;;21.32;57.97
50484;BME280;36409;52.168;20.878;2022-10-16T12:30:00;100809.61;;;21.28;58.10
50484;BME280;36409;52.168;20.878;2022-10-16T12:32:35;100810.73;;;21.24;57.86
50484;BME280;36409;52.168;20.878;2022-10-16T12:35:20;100810.97;;;21.19;57.81
50484;BME280;36409;52.168;20.878;2022-10-16T12:37:50;100815.34;;;21.20;57.80
50484;BME280;36409;52.168;20.878;2022-10-16T12:40:27;100814.41;;;21.21;57.95
50484;BME280;36409;52.168;20.878;2022-10-16T12:42:58;100819.17;;;21.14;58.29
50484;BME280;36409;52.168;20.878;2022-10-16T12:45:30;100817.44;;;20.96;57.76
50484;BME280;36409;52.168;20.878;2022-10-16T12:48:00;100810.42;;;20.77;57.84
50484;BME280;36409;52.168;20.878;2022-10-16T12:50:34;100820.53;;;20.69;57.94
50484;BME280;36409;52.168;20.878;2022-10-16T12:53:04;100818.10;;;20.64;57.94
50484;BME280;36409;52.168;20.878;2022-10-16T12:55:56;100816.76;;;20.56;58.67
50484;BME280;36409;52.168;20.878;2022-10-16T12:58:50;100824.06;;;20.50;58.63
50484;BME280;36409;52.168;20.878;2022-10-16T13:01:41;100823.45;;;20.45;58.34
50484;BME280;36409;52.168;20.878;2022-10-16T13:04:43;100822.88;;;20.39;58.68
50484;BME280;36409;52.168;20.878;2022-10-16T13:07:28;100816.00;;;20.34;58.21
50484;BME280;36409;52.168;20.878;2022-10-16T13:10:09;100818.25;;;20.25;58.83
50484;BME280;36409;52.168;20.878;2022-10-16T13:13:02;100820.37;;;20.16;59.23
50484;BME280;36409;52.168;20.878;2022-10-16T13:15:44;100826.99;;;20.08;58.79